createdAt,value
2018-09-05T00:01:43.924Z,97.00
2018-09-05T00:04:13.544Z,97.10
2018-09-05T00:06:44.066Z,97.10
2018-09-05T00:09:13.716Z,97.30
2018-09-05T00:11:44.571Z,97.20
2018-09-05T00:14:14.296Z,97.40
2018-09-05T00:16:43.908Z,97.30
2018-09-05T00:19:13.583Z,97.70
2018-09-05T00:21:44.445Z,97.60
2018-09-05T00:24:14.107Z,97.80
2018-09-05T00:26:43.678Z,98.00
2018-09-05T00:29:13.307Z,98.00
2018-09-05T00:31:43.853Z,98.00
2018-09-05T00:34:13.442Z,98.00
2018-09-05T00:36:43.722Z,98.00
2018-09-05T00:39:13.358Z,98.10
2018-09-05T00:41:43.824Z,98.20
2018-09-05T00:44:13.480Z,98.20
2018-09-05T00:46:43.077Z,98.40
2018-09-05T00:49:12.682Z,98.40
2018-09-05T00:51:43.526Z,98.40
2018-09-05T00:54:13.149Z,98.30
2018-09-05T00:56:42.747Z,98.60
2018-09-05T00:59:12.512Z,98.70
2018-09-05T01:01:42.741Z,98.90
2018-09-05T01:04:12.337Z,99.10
2018-09-05T01:06:43.275Z,99.10
2018-09-05T01:09:12.861Z,98.90
2018-09-05T01:11:43.869Z,98.90
2018-09-05T01:14:13.483Z,98.90
2018-09-05T01:16:43.107Z,99.00
2018-09-05T01:19:12.708Z,98.90
2018-09-05T01:21:44.277Z,99.20
2018-09-05T01:24:13.838Z,99.20
2018-09-05T01:26:43.442Z,99.20
2018-09-05T01:29:13.074Z,99.30
2018-09-05T01:31:43.373Z,99.40
2018-09-05T01:34:12.985Z,99.30
2018-09-05T01:36:43.559Z,99.40
2018-09-05T01:39:13.163Z,99.50
2018-09-05T01:41:43.551Z,99.50
2018-09-05T01:44:13.108Z,99.40
2018-09-05T01:46:42.745Z,99.60
2018-09-05T01:49:12.398Z,99.40
2018-09-05T01:51:43.683Z,99.40
2018-09-05T01:54:13.324Z,99.40
2018-09-05T01:56:42.907Z,99.50
2018-09-05T01:59:12.477Z,99.60
2018-09-05T02:01:42.676Z,99.70
2018-09-05T02:04:12.264Z,99.70
2018-09-05T02:06:42.947Z,99.70
2018-09-05T02:09:13.823Z,99.90
2018-09-05T02:11:44.277Z,99.90
2018-09-05T02:14:13.912Z,99.90
2018-09-05T02:16:43.643Z,99.90
2018-09-05T02:19:13.299Z,99.90
2018-09-05T02:21:44.152Z,99.90
2018-09-05T02:24:13.788Z,99.90
2018-09-05T02:26:43.406Z,99.90
2018-09-05T02:29:13.012Z,99.90
2018-09-05T02:31:43.009Z,99.90
2018-09-05T02:34:12.647Z,99.90
2018-09-05T02:36:43.379Z,99.90
2018-09-05T02:39:12.950Z,99.90
2018-09-05T02:41:42.853Z,99.90
2018-09-05T02:44:17.563Z,99.90
2018-09-05T02:46:47.256Z,99.90
2018-09-05T02:49:17.085Z,99.90
2018-09-05T02:51:47.245Z,99.90
2018-09-05T02:54:16.906Z,99.90
2018-09-05T02:56:46.501Z,99.90
2018-09-05T02:59:16.181Z,99.90
2018-09-05T03:01:46.297Z,99.90
2018-09-05T03:04:15.963Z,99.90
2018-09-05T03:06:45.593Z,99.90
2018-09-05T03:09:15.220Z,99.90
2018-09-05T03:11:44.804Z,99.90
2018-09-05T03:14:14.401Z,99.90
2018-09-05T03:16:44.095Z,99.90
2018-09-05T03:19:13.729Z,99.90
2018-09-05T03:21:44.417Z,99.90
2018-09-05T03:24:14.040Z,99.90
2018-09-05T03:26:43.621Z,99.90
2018-09-05T03:29:13.970Z,99.90
2018-09-05T03:31:43.774Z,99.90
2018-09-05T03:34:13.432Z,99.90
2018-09-05T03:36:43.484Z,99.90
2018-09-05T03:39:13.323Z,99.90
2018-09-05T03:41:43.305Z,99.90
2018-09-05T03:44:12.932Z,99.90
2018-09-05T03:46:42.503Z,99.90
2018-09-05T03:49:12.107Z,99.90
2018-09-05T03:51:43.975Z,99.90
2018-09-05T03:54:13.538Z,99.90
2018-09-05T03:56:54.217Z,99.90
2018-09-05T03:59:25.004Z,99.90
2018-09-05T04:01:54.623Z,99.90
2018-09-05T04:04:25.773Z,99.90
2018-09-05T04:06:55.959Z,99.90
2018-09-05T04:09:25.594Z,99.90
2018-09-05T04:11:55.574Z,99.90
2018-09-05T04:14:25.198Z,99.90
2018-09-05T04:16:54.816Z,99.90
2018-09-05T04:19:24.446Z,99.90
2018-09-05T04:21:55.254Z,99.90
2018-09-05T04:24:24.934Z,99.90
2018-09-05T04:26:54.565Z,99.90
2018-09-05T04:29:34.213Z,99.90
2018-09-05T04:32:09.304Z,99.90
2018-09-05T04:34:39.881Z,99.90
2018-09-05T04:37:09.563Z,99.90
2018-09-05T04:39:40.270Z,99.90
2018-09-05T04:42:09.926Z,99.90
2018-09-05T04:44:39.554Z,99.90
2018-09-05T04:47:19.927Z,99.90
2018-09-05T04:49:51.678Z,99.90
2018-09-05T04:52:21.354Z,99.90
2018-09-05T04:54:51.247Z,99.90
2018-09-05T04:57:21.288Z,99.90
2018-09-05T04:59:50.999Z,99.90
2018-09-05T05:02:20.652Z,99.90
2018-09-05T05:04:50.307Z,99.90
2018-09-05T05:07:19.920Z,99.90
2018-09-05T05:09:49.541Z,99.90
2018-09-05T05:12:19.851Z,99.90
2018-09-05T05:14:51.664Z,99.90
2018-09-05T05:17:21.956Z,99.90
2018-09-05T05:19:51.545Z,99.90
2018-09-05T05:22:21.176Z,99.90
2018-09-05T05:24:50.838Z,99.90
2018-09-05T05:27:20.492Z,99.90
2018-09-05T05:29:50.107Z,99.90
2018-09-05T05:32:19.748Z,99.90
2018-09-05T05:34:49.419Z,99.70
2018-09-05T05:37:19.184Z,99.20
2018-09-05T05:39:48.913Z,99.20
2018-09-05T05:42:18.533Z,98.90
2018-09-05T05:44:48.175Z,98.70
2018-09-05T05:47:17.815Z,98.20
2018-09-05T05:49:47.387Z,98.20
2018-09-05T05:52:16.982Z,98.00
2018-09-05T05:54:46.564Z,97.70
2018-09-05T05:57:16.148Z,97.40
2018-09-05T05:59:45.751Z,96.60
2018-09-05T06:02:15.380Z,96.60
2018-09-05T06:04:45.092Z,96.50
2018-09-05T06:07:14.757Z,96.30
2018-09-05T06:09:44.415Z,96.70
2018-09-05T06:12:14.040Z,96.00
2018-09-05T06:14:43.602Z,96.10
2018-09-05T06:17:13.323Z,95.40
2018-09-05T06:19:42.969Z,95.10
2018-09-05T06:22:14.087Z,95.30
2018-09-05T06:24:44.276Z,94.90
2018-09-05T06:27:13.910Z,94.80
2018-09-05T06:29:43.550Z,94.50
2018-09-05T06:32:13.343Z,94.60
2018-09-05T06:34:42.947Z,94.60
2018-09-05T06:37:13.437Z,94.40
2018-09-05T06:39:43.702Z,94.10
2018-09-05T06:42:13.613Z,93.90
2018-09-05T06:44:43.260Z,93.60
2018-09-05T06:47:13.457Z,93.40
2018-09-05T06:49:43.068Z,93.00
2018-09-05T06:52:13.422Z,93.30
2018-09-05T06:54:43.516Z,92.90
2018-09-05T06:57:13.857Z,92.80
2018-09-05T06:59:43.463Z,92.70
2018-09-05T07:02:13.420Z,91.80
2018-09-05T07:04:43.017Z,91.60
2018-09-05T07:07:13.563Z,91.90
2018-09-05T07:09:43.788Z,91.60
2018-09-05T07:12:13.984Z,91.10
2018-09-05T07:14:43.641Z,91.30
2018-09-05T07:17:14.015Z,91.10
2018-09-05T07:19:43.637Z,90.90
2018-09-05T07:22:13.784Z,90.80
2018-09-05T07:24:43.796Z,91.00
2018-09-05T07:27:13.895Z,91.40
2018-09-05T07:29:43.601Z,90.80
2018-09-05T07:32:14.205Z,90.40
2018-09-05T07:34:43.860Z,90.00
2018-09-05T07:37:14.388Z,90.10
2018-09-05T07:39:44.468Z,89.50
2018-09-05T07:42:14.673Z,89.20
2018-09-05T07:44:46.420Z,89.00
2018-09-05T07:47:16.579Z,90.50
2018-09-05T07:49:46.197Z,88.20
2018-09-05T07:52:16.659Z,88.90
2018-09-05T07:54:46.307Z,89.40
2018-09-05T07:57:16.488Z,87.60
2018-09-05T07:59:46.043Z,87.20
2018-09-05T08:02:16.445Z,87.40
2018-09-05T08:04:46.028Z,86.90
2018-09-05T08:07:16.516Z,87.50
2018-09-05T08:09:46.167Z,85.50
2018-09-05T08:12:16.117Z,85.60
2018-09-05T08:14:45.748Z,86.00
2018-09-05T08:17:15.660Z,85.90
2018-09-05T08:19:45.303Z,86.50
2018-09-05T08:22:15.804Z,85.90
2018-09-05T08:24:45.511Z,85.20
2018-09-05T08:27:15.764Z,86.50
2018-09-05T08:29:45.359Z,86.00
2018-09-05T08:32:15.273Z,85.00
2018-09-05T08:34:44.889Z,83.50
2018-09-05T08:37:14.680Z,83.20
2018-09-05T08:39:44.557Z,83.00
2018-09-05T08:42:14.377Z,83.80
2018-09-05T08:44:44.114Z,81.50
2018-09-05T08:47:13.713Z,80.50
2018-09-05T08:49:43.263Z,79.10
2018-09-05T08:52:12.921Z,78.70
2018-09-05T08:54:42.935Z,78.60
2018-09-05T08:57:12.649Z,79.10
2018-09-05T08:59:42.236Z,79.10
2018-09-05T09:02:11.807Z,77.30
2018-09-05T09:04:41.483Z,78.90
2018-09-05T09:07:11.076Z,78.10
2018-09-05T09:09:42.011Z,78.80
2018-09-05T09:12:11.670Z,76.60
2018-09-05T09:14:41.307Z,75.90
2018-09-05T09:17:10.993Z,75.50
2018-09-05T09:19:40.637Z,74.90
2018-09-05T09:22:10.341Z,74.30
2018-09-05T09:24:41.490Z,72.60
2018-09-05T09:27:11.189Z,72.70
2018-09-05T09:29:40.840Z,72.60
2018-09-05T09:32:10.461Z,71.90
2018-09-05T09:34:40.045Z,71.20
2018-09-05T09:37:09.712Z,71.60
2018-09-05T09:39:39.994Z,71.90
2018-09-05T09:42:09.728Z,71.30
2018-09-05T09:44:39.374Z,69.70
2018-09-05T09:47:09.035Z,69.60
2018-09-05T09:49:38.676Z,70.10
2018-09-05T09:52:13.431Z,69.60
2018-09-05T09:54:43.624Z,67.70
2018-09-05T09:57:13.225Z,67.40
2018-09-05T09:59:42.841Z,65.30
2018-09-05T10:02:17.517Z,65.10
2018-09-05T10:06:57.682Z,64.10
2018-09-05T10:09:34.141Z,64.00
2018-09-05T10:12:08.977Z,63.20
2018-09-05T10:14:42.667Z,62.40
2018-09-05T10:17:17.501Z,62.00
2018-09-05T10:19:51.243Z,62.50
2018-09-05T10:22:21.677Z,62.20
2018-09-05T10:24:51.273Z,62.60
2018-09-05T10:27:21.193Z,60.90
2018-09-05T10:29:50.820Z,60.40
2018-09-05T10:32:20.572Z,61.10
2018-09-05T10:34:50.189Z,61.40
2018-09-05T10:37:19.806Z,61.30
2018-09-05T10:39:49.503Z,62.20
2018-09-05T10:42:19.065Z,61.40
2018-09-05T10:44:48.708Z,61.70
2018-09-05T10:47:18.280Z,63.20
2018-09-05T10:49:47.876Z,63.30
2018-09-05T10:52:17.483Z,61.60
2018-09-05T10:54:47.119Z,61.70
2018-09-05T10:57:16.756Z,61.60
2018-09-05T10:59:46.381Z,61.00
2018-09-05T11:02:16.012Z,62.60
2018-09-05T11:04:45.614Z,59.20
2018-09-05T11:07:15.231Z,58.70
2018-09-05T11:09:44.866Z,59.40
2018-09-05T11:12:14.471Z,58.90
2018-09-05T11:14:44.053Z,59.50
2018-09-05T11:17:13.653Z,59.40
2018-09-05T11:19:43.210Z,59.50
2018-09-05T11:22:12.807Z,58.70
2018-09-05T11:24:43.044Z,58.40
2018-09-05T11:27:12.727Z,57.10
2018-09-05T11:29:42.408Z,57.20
2018-09-05T11:32:12.025Z,56.10
2018-09-05T11:34:41.636Z,56.10
2018-09-05T11:37:11.232Z,56.30
2018-09-05T11:39:42.348Z,56.50
2018-09-05T11:42:11.962Z,56.00
2018-09-05T11:44:41.575Z,55.00
2018-09-05T11:47:11.204Z,54.20
2018-09-05T11:49:40.810Z,54.60
2018-09-05T11:52:10.430Z,53.60
2018-09-05T11:54:41.791Z,53.60
2018-09-05T11:57:11.577Z,54.60
2018-09-05T11:59:41.150Z,54.50
2018-09-05T12:02:11.260Z,54.60
2018-09-05T12:04:40.832Z,53.60
2018-09-05T12:07:10.867Z,53.70
2018-09-05T12:09:42.198Z,54.00
2018-09-05T12:12:12.174Z,54.00
2018-09-05T12:14:41.795Z,52.60
2018-09-05T12:17:11.480Z,53.00
2018-09-05T12:19:41.107Z,52.10
2018-09-05T12:22:10.712Z,52.00
2018-09-05T12:24:41.221Z,51.80
2018-09-05T12:27:10.868Z,52.60
2018-09-05T12:29:40.519Z,53.10
2018-09-05T12:32:10.194Z,52.40
2018-09-05T12:34:39.801Z,52.80
2018-09-05T12:37:09.423Z,54.10
2018-09-05T12:39:39.877Z,53.10
2018-09-05T12:42:09.524Z,52.50
2018-09-05T12:44:39.265Z,52.00
2018-09-05T12:47:08.884Z,51.80
2018-09-05T12:49:38.483Z,52.60
2018-09-05T12:52:08.131Z,51.60
2018-09-05T12:54:37.982Z,50.30
2018-09-05T12:57:07.680Z,50.10
2018-09-05T12:59:37.328Z,49.70
2018-09-05T13:02:07.417Z,48.60
2018-09-05T13:04:37.901Z,48.30
2018-09-05T13:07:08.185Z,48.10
2018-09-05T13:09:38.085Z,45.50
2018-09-05T13:12:07.735Z,45.10
2018-09-05T13:14:37.434Z,45.00
2018-09-05T13:17:07.098Z,44.30
2018-09-05T13:19:36.696Z,43.20
2018-09-05T13:22:06.315Z,43.90
2018-09-05T13:24:36.048Z,45.10
2018-09-05T13:27:05.909Z,44.50
2018-09-05T13:29:35.814Z,43.70
2018-09-05T13:32:05.423Z,43.70
2018-09-05T13:34:35.303Z,44.90
2018-09-05T13:37:04.944Z,46.90
2018-09-05T13:39:35.307Z,48.10
2018-09-05T13:42:04.969Z,48.40
2018-09-05T13:44:35.279Z,48.30
2018-09-05T13:47:04.986Z,47.60
2018-09-05T13:49:35.330Z,45.10
2018-09-05T13:52:06.212Z,45.00
2018-09-05T13:54:37.752Z,45.00
2018-09-05T13:57:07.372Z,44.30
2018-09-05T13:59:37.109Z,44.50
2018-09-05T14:02:06.782Z,44.10
2018-09-05T14:04:36.922Z,45.30
2018-09-05T14:07:06.880Z,44.30
2018-09-05T14:09:37.221Z,43.30
2018-09-05T14:12:07.115Z,43.20
2018-09-05T14:14:37.304Z,43.00
2018-09-05T14:17:08.497Z,42.90
2018-09-05T14:19:38.188Z,42.70
2018-09-05T14:22:07.885Z,43.40
2018-09-05T14:24:37.959Z,44.40
2018-09-05T14:27:07.744Z,46.00
2018-09-05T14:29:39.012Z,45.60
2018-09-05T14:32:08.757Z,45.60
2018-09-05T14:34:38.872Z,45.00
2018-09-05T14:37:08.630Z,44.80
2018-09-05T14:39:39.634Z,44.20
2018-09-05T14:42:09.374Z,44.20
2018-09-05T14:44:39.299Z,42.80
2018-09-05T14:47:08.951Z,42.00
2018-09-05T14:49:39.007Z,40.90
2018-09-05T14:52:09.204Z,40.20
2018-09-05T14:54:40.193Z,39.70
2018-09-05T14:57:09.911Z,39.30
2018-09-05T14:59:39.913Z,39.30
2018-09-05T15:02:09.596Z,39.20
2018-09-05T15:04:40.059Z,39.60
2018-09-05T15:07:09.781Z,41.00
2018-09-05T15:09:41.048Z,41.40
2018-09-05T15:12:10.705Z,42.40
2018-09-05T15:14:40.713Z,42.60
2018-09-05T15:17:10.368Z,43.30
2018-09-05T15:19:40.935Z,44.30
2018-09-05T15:22:10.828Z,44.30
2018-09-05T15:24:41.857Z,44.70
2018-09-05T15:27:11.522Z,44.60
2018-09-05T15:29:41.468Z,43.50
2018-09-05T15:32:11.235Z,43.60
2018-09-05T15:34:41.263Z,43.20
2018-09-05T15:37:10.992Z,42.50
2018-09-05T15:39:42.966Z,42.70
2018-09-05T15:42:12.569Z,42.80
2018-09-05T15:44:42.411Z,43.00
2018-09-05T15:47:12.262Z,43.70
2018-09-05T15:49:43.070Z,44.50
2018-09-05T15:52:13.059Z,45.70
2018-09-05T15:54:47.401Z,47.20
2018-09-05T15:57:17.267Z,47.90
2018-09-05T15:59:46.932Z,48.70
2018-09-05T16:02:16.631Z,49.60
2018-09-05T16:04:46.293Z,50.30
2018-09-05T16:07:17.053Z,50.90
2018-09-05T16:09:47.814Z,51.30
2018-09-05T16:12:17.406Z,50.50
2018-09-05T16:14:47.117Z,51.00
2018-09-05T16:17:16.745Z,51.50
2018-09-05T16:19:46.383Z,51.90
2018-09-05T16:22:16.110Z,52.00
2018-09-05T16:24:45.997Z,52.40
2018-09-05T16:27:15.621Z,52.30
2018-09-05T16:29:45.373Z,52.50
2018-09-05T16:32:14.975Z,53.00
2018-09-05T16:34:44.841Z,52.50
2018-09-05T16:37:14.491Z,52.70
2018-09-05T16:39:44.651Z,52.80
2018-09-05T16:42:14.244Z,52.80
2018-09-05T16:44:44.564Z,52.70
2018-09-05T16:47:14.316Z,52.90
2018-09-05T16:49:44.601Z,53.20
2018-09-05T16:52:14.259Z,53.30
2018-09-05T16:54:45.086Z,53.70
2018-09-05T16:57:14.740Z,53.70
2018-09-05T16:59:45.260Z,54.10
2018-09-05T18:03:23.821Z,58.90
2018-09-05T18:05:53.502Z,60.30
2018-09-05T18:08:23.273Z,60.30
2018-09-05T18:10:53.022Z,61.20
2018-09-05T18:13:22.696Z,62.30
2018-09-05T18:15:52.403Z,63.10
2018-09-05T18:18:22.254Z,63.50
2018-09-05T18:20:52.276Z,64.00
2018-09-05T18:23:22.811Z,64.50
2018-09-05T18:25:53.717Z,65.10
2018-09-05T18:28:23.344Z,65.10
2018-09-05T18:30:53.665Z,67.50
2018-09-05T18:33:23.371Z,67.70
2018-09-05T18:35:53.016Z,68.90
2018-09-05T18:38:22.680Z,69.20
2018-09-05T18:40:54.221Z,70.00
2018-09-05T18:43:23.883Z,69.90
2018-09-05T18:45:53.673Z,70.90
2018-09-05T18:48:23.350Z,71.70
2018-09-05T18:50:52.988Z,72.60
2018-09-05T18:53:22.780Z,73.00
2018-09-05T18:55:52.543Z,73.20
2018-09-05T18:58:22.175Z,73.90
2018-09-05T19:00:52.027Z,74.30
2018-09-05T19:03:21.634Z,74.70
2018-09-05T19:05:54.622Z,75.00
2018-09-05T19:08:25.766Z,75.50
2018-09-05T19:11:02.324Z,75.80
2018-09-05T19:13:33.413Z,76.60
2018-09-05T19:16:03.139Z,77.30
2018-09-05T19:18:32.980Z,77.30
2018-09-05T19:21:02.501Z,77.60
2018-09-05T19:23:32.578Z,76.80
2018-09-05T19:26:02.444Z,76.30
2018-09-05T19:28:32.156Z,75.60
2018-09-05T19:31:01.746Z,76.30
2018-09-05T19:33:32.295Z,76.20
2018-09-05T19:36:02.007Z,76.80
2018-09-05T19:38:31.644Z,76.70
2018-09-05T19:41:01.509Z,77.00
2018-09-05T19:43:31.167Z,77.80
2018-09-05T19:46:00.922Z,78.60
2018-09-05T19:48:30.585Z,78.90
2018-09-05T19:51:00.229Z,79.40
2018-09-05T19:53:29.955Z,80.00
2018-09-05T19:55:59.725Z,80.20
2018-09-05T19:58:29.414Z,80.60
2018-09-05T20:00:59.116Z,80.80
2018-09-05T20:03:28.934Z,80.90
2018-09-05T20:05:59.141Z,81.10
2018-09-05T20:08:28.947Z,81.20
2018-09-05T20:10:58.786Z,81.40
2018-09-05T20:13:28.661Z,81.30
2018-09-05T20:15:59.122Z,81.50
2018-09-05T20:18:29.154Z,81.80
2018-09-05T20:20:59.024Z,81.70
2018-09-05T20:23:29.096Z,81.90
2018-09-05T20:25:58.878Z,82.40
2018-09-05T20:28:28.517Z,81.60
2018-09-05T20:30:58.779Z,82.30
2018-09-05T20:33:28.402Z,82.50
2018-09-05T20:35:58.031Z,81.90
2018-09-05T20:38:27.670Z,82.00
2018-09-05T20:40:57.488Z,82.30
2018-09-05T20:43:27.073Z,82.60
2018-09-05T20:45:57.435Z,82.40
2018-09-05T20:48:27.073Z,82.50
2018-09-05T20:50:56.877Z,83.00
2018-09-05T20:53:26.475Z,82.90
2018-09-05T20:55:56.164Z,83.20
2018-09-05T20:58:25.802Z,83.30
2018-09-05T21:00:55.676Z,83.30
2018-09-05T21:03:25.502Z,83.60
2018-09-05T21:05:55.120Z,83.50
2018-09-05T21:08:24.735Z,83.50
2018-09-05T21:10:54.566Z,83.70
2018-09-05T21:13:24.353Z,83.90
2018-09-05T21:15:54.027Z,83.80
2018-09-05T21:18:23.661Z,83.80
2018-09-05T21:20:53.396Z,83.90
2018-09-05T21:23:23.178Z,83.90
2018-09-05T21:25:52.780Z,84.10
2018-09-05T21:28:23.604Z,84.20
2018-09-05T21:30:53.294Z,84.20
2018-09-05T21:33:23.851Z,84.30
2018-09-05T21:35:53.492Z,84.30
2018-09-05T21:38:23.145Z,84.50
2018-09-05T21:40:52.784Z,84.60
2018-09-05T21:43:22.409Z,84.70
2018-09-05T21:45:52.036Z,84.80
2018-09-05T21:48:21.677Z,85.30
2018-09-05T21:50:51.434Z,85.60
2018-09-05T21:53:21.128Z,85.70
2018-09-05T21:55:50.777Z,85.80
2018-09-05T21:58:20.372Z,86.10
2018-09-05T22:00:49.990Z,86.20
2018-09-05T22:03:19.626Z,86.40
2018-09-05T22:05:49.421Z,86.70
2018-09-05T22:08:19.060Z,86.90
2018-09-05T22:10:48.812Z,87.10
2018-09-05T22:13:18.486Z,87.40
2018-09-05T22:15:48.794Z,87.70
2018-09-05T22:18:19.100Z,87.50
2018-09-05T22:20:48.767Z,87.60
2018-09-05T22:23:18.387Z,86.70
2018-09-05T22:25:48.054Z,87.40
2018-09-05T22:28:18.120Z,87.30
2018-09-05T22:30:47.770Z,88.00
2018-09-05T22:33:18.039Z,88.70
2018-09-05T22:35:47.618Z,88.60
2018-09-05T22:38:17.622Z,89.40
2018-09-05T22:40:53.702Z,89.80
2018-09-05T22:43:40.224Z,90.20
2018-09-05T22:46:26.449Z,90.30
2018-09-05T22:49:19.074Z,90.30
2018-09-05T22:52:16.901Z,90.60
2018-09-05T22:55:15.879Z,90.50
2018-09-05T22:58:21.221Z,90.90
2018-09-05T23:03:12.507Z,91.50
2018-09-05T23:08:09.254Z,91.70
2018-09-05T23:10:55.489Z,91.60
2018-09-05T23:13:41.884Z,91.90
2018-09-05T23:17:27.496Z,91.70
2018-09-05T23:22:08.476Z,91.60
2018-09-05T23:24:38.428Z,91.80
2018-09-05T23:27:08.047Z,91.90
2018-09-05T23:29:37.662Z,91.80
2018-09-05T23:32:07.317Z,91.90
2018-09-05T23:34:36.973Z,92.10
2018-09-05T23:37:06.732Z,92.10
2018-09-05T23:39:36.356Z,92.20
2018-09-05T23:42:06.063Z,92.10
2018-09-05T23:44:35.631Z,92.30
2018-09-05T23:47:05.434Z,92.40
2018-09-05T23:49:35.056Z,92.60
2018-09-05T23:52:04.841Z,92.70
2018-09-05T23:54:34.458Z,93.10
2018-09-05T23:57:04.194Z,92.50
2018-09-05T23:59:33.850Z,92.70
